Monday, December 16, 2019, 7:59 AM EST
Back to Local

KHWV, Shirley Brookhaven Airport

Location: Shirley, NY, United States Lat: 40.817
Local Time: 7:59 AM EST (12:59 GMT) Lon: -72.867
Time Zone: US/Eastern Elev: 82 ft

Show me the last for .
Show Decoded

2019-12-16 06:56 METAR KHWV 161156Z AUTO 29003KT 10SM BKN120 M01/M07 A3025 RMK AO2 SLP243
                 T10111072 10022 21022 53010 TSNO =
2019-12-16 05:56 METAR KHWV 161056Z AUTO 25003KT 10SM FEW120 M01/M08 A3024 RMK AO2 SLP239
                 T10061083 TSNO =
2019-12-16 04:56 METAR KHWV 160956Z AUTO 00000KT 10SM CLR 00/M09 A3022 RMK AO2 SLP234 T00001089
                 TSNO =
2019-12-16 03:56 METAR KHWV 160856Z AUTO 30005KT 10SM CLR 01/M08 A3022 RMK AO2 SLP232 T00061083
                 51018 TSNO =
2019-12-16 02:56 METAR KHWV 160756Z AUTO 30007G16KT 10SM CLR 01/M09 A3021 RMK AO2 SLP229
                 T00111089 TSNO =
2019-12-16 01:56 METAR KHWV 160656Z AUTO 30007KT 10SM CLR 02/M08 A3019 RMK AO2 SLP223 T00171083
                 TSNO =
2019-12-16 00:56 METAR KHWV 160556Z AUTO 31011G21KT 10SM CLR 02/M09 A3017 RMK AO2 SLP215
                 T00221089 10056 20017 53023 TSNO =
2019-12-15 23:56 METAR KHWV 160456Z AUTO 30011G21KT 10SM CLR 02/M08 A3014 RMK AO2 SLP206
                 T00221078 401000022 TSNO =
2019-12-15 22:56 METAR KHWV 160356Z AUTO 31012KT 10SM CLR 03/M07 A3012 RMK AO2 SLP200 T00281067
                 TSNO =
2019-12-15 21:56 METAR KHWV 160256Z AUTO 30015G23KT 10SM CLR 03/M07 A3010 RMK AO2 PK WND
                 29029/0239 SLP192 T00331072 52028 TSNO =
2019-12-15 20:56 METAR KHWV 160156Z AUTO 31009G19KT 10SM CLR 04/M06 A3007 RMK AO2 SLP184
                 T00391056 TSNO =
2019-12-15 19:56 METAR KHWV 160056Z AUTO 32013G18KT 10SM BKN050 04/M04 A3004 RMK AO2 SLP171
                 T00441044 TSNO =
2019-12-15 18:56 METAR KHWV 152356Z AUTO 26011KT 10SM SCT060 06/M07 A3001 RMK AO2 SLP163
                 T00561067 10100 20050 53044 TSNO =
2019-12-15 17:56 METAR KHWV 152256Z AUTO 27012KT 10SM CLR 06/M06 A2997 RMK AO2 SLP148 T00561061
                 TSNO =
2019-12-15 16:56 METAR KHWV 152156Z AUTO 28008KT 10SM SCT060 06/M06 A2992 RMK AO2 PK WND
                 27031/2107 SLP132 T00611061 TSNO =
2019-12-15 15:56 METAR KHWV 152056Z AUTO 29013G22KT 10SM OVC060 07/M06 A2988 RMK AO2 PK WND
                 28027/2013 SLP119 T00721061 53043 TSNO =
2019-12-15 14:56 METAR KHWV 151956Z AUTO 30017G26KT 10SM CLR 08/M06 A2983 RMK AO2 PK WND
                 26029/1937 SLP101 T00781061 TSNO =
2019-12-15 13:56 METAR KHWV 151856Z AUTO 29016G29KT 10SM OVC060 08/M03 A2980 RMK AO2 PK WND
                 30029/1851 SLP092 T00831033 TSNO =
2019-12-15 12:56 METAR KHWV 151756Z AUTO 27012G21KT 10SM BKN065 10/M02 A2976 RMK AO2 PK WND
                 25026/1728 SLP077 T01001022 10100 20056 51008 TSNO =
2019-12-15 11:56 METAR KHWV 151656Z AUTO 27013G24KT 10SM OVC050 09/M02 A2975 RMK AO2 PK WND
                 27026/1630 SLP075 T00891017 TSNO =
2019-12-15 10:56 METAR KHWV 151556Z AUTO 27015G25KT 230V290 10SM SCT050 BKN065 09/M03 A2974 RMK
                 AO2 PK WND 27028/1537 SLP072 T00941028 TSNO =
2019-12-15 09:56 METAR KHWV 151456Z AUTO 25014G29KT 10SM BKN060 09/M01 A2973 RMK AO2 PK WND
                 27029/1452 SLP068 T00891011 51031 TSNO $ =
2019-12-15 08:56 METAR KHWV 151356Z AUTO 26009G17KT 10SM OVC055 07/M01 A2971 RMK AO2 SLP061
                 T00721006 TSNO $ =

Support USWX by starting your Amazon purchase here.